Time;durP1;ratioP1;P1;durP2;ratioP2;P2;SDS_P1;SDS_P2;PMS_P1;PMS_P2;Temp;Humidity;BMP_temperature;BMP_pressure;BME280_temperature;BME280_humidity;BME280_pressure;Samples;Min_cycle;Max_cycle;Signal;HPM_P1;HPM_P2
2023/05/17 00:01:58;;;;;;;6.47;1.73;;;19.00;1.00;;;;;;4828703;29;20063;-43
2023/05/17 00:04:24;;;;;;;6.82;1.77;;;19.00;1.00;;;;;;4835763;29;20133;-44
2023/05/17 00:06:51;;;;;;;5.78;1.45;;;19.00;1.00;;;;;;4835228;29;20046;-44
2023/05/17 00:09:18;;;;;;;6.72;2.17;;;19.00;1.00;;;;;;4828827;29;20038;-44
2023/05/17 00:11:45;;;;;;;5.50;1.52;;;19.00;1.00;;;;;;4829391;29;20499;-43
2023/05/17 00:14:11;;;;;;;6.38;1.70;;;19.00;1.00;;;;;;4832601;29;20049;-43
2023/05/17 00:16:38;;;;;;;3.90;2.03;;;19.00;1.00;;;;;;4831567;29;20055;-43
2023/05/17 00:19:05;;;;;;;4.07;1.88;;;19.00;1.00;;;;;;4835519;29;20126;-44
2023/05/17 00:21:33;;;;;;;3.55;1.27;;;19.00;1.00;;;;;;4828554;29;20380;-44
2023/05/17 00:23:59;;;;;;;9.45;2.33;;;19.00;1.00;;;;;;4827992;29;20066;-43
2023/05/17 00:26:26;;;;;;;5.35;1.95;;;19.00;1.00;;;;;;4829168;29;20099;-45
2023/05/17 00:28:53;;;;;;;6.55;1.30;;;18.90;1.00;;;;;;4836991;29;20050;-46
2023/05/17 00:31:20;;;;;;;5.78;1.63;;;19.00;1.00;;;;;;4835126;29;20582;-43
2023/05/17 00:33:47;;;;;;;4.82;1.55;;;19.00;1.00;;;;;;4830182;29;20673;-45
2023/05/17 00:36:14;;;;;;;4.75;1.30;;;18.90;1.00;;;;;;4838086;29;20044;-43
2023/05/17 00:38:41;;;;;;;3.30;1.20;;;18.90;1.00;;;;;;4831636;29;20046;-43
2023/05/17 00:41:07;;;;;;;4.47;1.65;;;18.90;1.00;;;;;;4832592;29;20090;-44
2023/05/17 00:43:34;;;;;;;7.95;1.98;;;19.00;1.00;;;;;;4832254;29;20053;-44
2023/05/17 00:46:01;;;;;;;6.15;2.13;;;18.90;1.00;;;;;;4827545;29;20072;-44
2023/05/17 00:48:28;;;;;;;5.75;1.90;;;18.90;1.00;;;;;;4827887;29;20050;-43
2023/05/17 00:50:57;;;;;;;4.93;1.40;;;18.90;1.00;;;;;;4835358;29;20058;-44
2023/05/17 00:53:24;;;;;;;4.25;1.75;;;18.90;1.00;;;;;;4826835;29;20050;-43
2023/05/17 00:55:53;;;;;;;5.38;1.92;;;18.90;1.00;;;;;;4827974;29;20050;-44
2023/05/17 00:58:21;;;;;;;6.43;1.58;;;18.90;1.00;;;;;;4841276;29;20129;-43
2023/05/17 01:00:49;;;;;;;4.30;1.27;;;18.90;1.00;;;;;;4838559;29;20474;-43
2023/05/17 01:03:16;;;;;;;5.50;1.60;;;18.90;1.00;;;;;;4842550;29;20049;-46
2023/05/17 01:05:44;;;;;;;4.28;1.48;;;18.90;1.00;;;;;;4841867;29;20050;-44
2023/05/17 01:08:10;;;;;;;7.30;1.60;;;18.90;1.00;;;;;;4829861;29;20047;-44
2023/05/17 01:11:02;;;;;;;7.10;1.75;;;18.90;1.00;;;;;;4832429;29;20038;-44
2023/05/17 01:13:57;;;;;;;5.13;1.65;;;18.90;1.00;;;;;;4826555;29;20133;-43
2023/05/17 01:16:39;;;;;;;4.40;1.33;;;18.80;1.00;;;;;;4826441;29;20072;-43
2023/05/17 01:19:35;;;;;;;5.70;2.05;;;18.80;1.00;;;;;;4830282;29;20057;-44
2023/05/17 01:22:45;;;;;;;5.03;1.40;;;18.80;1.00;;;;;;4830276;29;20073;-44
2023/05/17 01:25:47;;;;;;;2.58;1.00;;;18.80;1.00;;;;;;4809746;29;20129;-43
2023/05/17 01:28:16;;;;;;;6.35;1.60;;;18.80;1.00;;;;;;4824621;29;20139;-45
2023/05/17 01:30:45;;;;;;;8.07;1.58;;;18.80;1.00;;;;;;4839142;29;20073;-43
2023/05/17 01:33:13;;;;;;;3.17;1.10;;;18.80;1.00;;;;;;4846769;29;20046;-44
2023/05/17 01:35:40;;;;;;;4.35;1.65;;;18.80;1.00;;;;;;4837137;29;20063;-44
2023/05/17 01:38:07;;;;;;;7.68;1.58;;;18.70;1.00;;;;;;4824358;29;20315;-43
2023/05/17 01:40:38;;;;;;;3.60;1.08;;;18.80;1.00;;;;;;4831442;29;20343;-43
2023/05/17 01:43:22;;;;;;;4.63;1.55;;;18.80;1.00;;;;;;4838852;29;20053;-43
2023/05/17 01:46:00;;;;;;;5.10;1.60;;;18.70;1.00;;;;;;4835212;29;20079;-43
2023/05/17 01:48:35;;;;;;;5.40;1.60;;;18.80;1.00;;;;;;4834878;29;20111;-43
2023/05/17 01:51:03;;;;;;;5.38;1.17;;;18.80;1.00;;;;;;4836596;29;20077;-43
2023/05/17 01:53:38;;;;;;;6.15;1.85;;;18.80;1.00;;;;;;4829731;29;20043;-45
2023/05/17 01:56:15;;;;;;;6.68;2.28;;;18.70;1.00;;;;;;4840006;29;20417;-44
2023/05/17 01:58:47;;;;;;;4.88;1.70;;;18.70;1.00;;;;;;4839768;29;20075;-43
2023/05/17 02:01:15;;;;;;;7.68;1.80;;;18.70;1.00;;;;;;4823209;29;20053;-43
2023/05/17 02:03:42;;;;;;;3.20;0.80;;;18.70;1.00;;;;;;4830067;29;20076;-44
2023/05/17 02:06:10;;;;;;;4.07;1.27;;;18.70;1.00;;;;;;4822576;29;20091;-43
2023/05/17 02:08:39;;;;;;;6.15;1.55;;;18.70;1.00;;;;;;4828485;29;20061;-44
2023/05/17 02:11:06;;;;;;;6.20;1.20;;;18.70;1.00;;;;;;4830394;29;20047;-44
2023/05/17 02:13:33;;;;;;;6.32;1.15;;;18.70;1.00;;;;;;4842254;29;20049;-44
2023/05/17 02:16:01;;;;;;;3.28;1.33;;;18.70;1.00;;;;;;4839260;29;20486;-43
2023/05/17 02:18:28;;;;;;;5.20;1.27;;;18.70;1.00;;;;;;4833900;29;20046;-43
2023/05/17 02:20:55;;;;;;;5.45;1.58;;;18.70;1.00;;;;;;4828384;29;20145;-46
2023/05/17 02:23:23;;;;;;;4.88;0.95;;;18.70;1.00;;;;;;4829609;29;20406;-43
2023/05/17 02:25:51;;;;;;;8.77;1.70;;;18.60;1.00;;;;;;4830697;29;20043;-45
2023/05/17 02:28:18;;;;;;;3.78;1.77;;;18.60;1.00;;;;;;4834957;29;20103;-43
2023/05/17 02:30:45;;;;;;;2.78;1.05;;;18.60;1.00;;;;;;4837301;29;20452;-43
2023/05/17 02:33:12;;;;;;;5.45;1.20;;;18.60;1.00;;;;;;4833405;29;20042;-45
2023/05/17 02:35:39;;;;;;;6.72;1.30;;;18.60;1.00;;;;;;4831958;29;20062;-44
2023/05/17 02:38:06;;;;;;;6.07;1.45;;;18.60;1.00;;;;;;4826848;29;20051;-43
2023/05/17 02:40:32;;;;;;;6.22;1.60;;;18.60;1.00;;;;;;4828990;29;20053;-43
2023/05/17 02:43:01;;;;;;;4.38;0.80;;;18.60;1.00;;;;;;4834593;29;20459;-43
2023/05/17 02:45:29;;;;;;;8.30;1.90;;;18.60;1.00;;;;;;4827021;29;20149;-43
2023/05/17 02:47:56;;;;;;;2.70;0.95;;;18.60;1.00;;;;;;4825403;29;20062;-43
2023/05/17 02:50:23;;;;;;;5.13;1.40;;;18.60;1.00;;;;;;4825599;29;20118;-45
2023/05/17 02:52:50;;;;;;;5.88;1.73;;;18.60;1.00;;;;;;4827476;29;20081;-43
2023/05/17 02:55:17;;;;;;;6.95;1.73;;;18.60;1.00;;;;;;4840465;29;20433;-43
2023/05/17 02:57:43;;;;;;;4.07;1.20;;;18.50;1.00;;;;;;4841322;29;20061;-43
2023/05/17 03:00:11;;;;;;;5.47;1.00;;;18.50;1.00;;;;;;4816811;29;20047;-43
2023/05/17 03:02:38;;;;;;;4.43;1.40;;;18.50;1.00;;;;;;4825098;29;20085;-43
2023/05/17 03:05:07;;;;;;;3.10;1.48;;;18.50;1.00;;;;;;4824366;29;20335;-43
2023/05/17 03:07:36;;;;;;;4.72;1.50;;;18.50;1.00;;;;;;4832836;29;20567;-44
2023/05/17 03:10:03;;;;;;;5.20;2.13;;;18.50;1.00;;;;;;4835797;29;20051;-43
2023/05/17 03:12:36;;;;;;;4.30;1.38;;;18.50;1.00;;;;;;4844048;29;20081;-45
2023/05/17 03:15:03;;;;;;;6.80;1.27;;;18.50;1.00;;;;;;4836608;29;20084;-43
2023/05/17 03:17:30;;;;;;;6.32;1.98;;;18.50;1.00;;;;;;4827814;29;20137;-44
2023/05/17 03:19:58;;;;;;;6.13;1.38;;;18.50;1.00;;;;;;4827807;29;20054;-44
2023/05/17 03:22:25;;;;;;;3.13;1.10;;;18.50;1.00;;;;;;4827107;29;20050;-43
2023/05/17 03:24:53;;;;;;;5.10;1.10;;;18.50;1.00;;;;;;4842439;29;20144;-43
2023/05/17 03:27:20;;;;;;;3.58;1.50;;;18.50;1.00;;;;;;4840403;29;20525;-45
2023/05/17 03:29:47;;;;;;;3.83;0.90;;;18.50;1.00;;;;;;4838384;29;20074;-45
2023/05/17 03:32:14;;;;;;;6.15;1.58;;;18.50;1.00;;;;;;4819762;29;20075;-44
2023/05/17 03:34:41;;;;;;;4.57;1.15;;;18.50;1.00;;;;;;4835397;29;20054;-43
2023/05/17 03:37:08;;;;;;;5.25;1.67;;;18.40;1.00;;;;;;4829387;29;20108;-44
2023/05/17 03:39:35;;;;;;;7.20;1.33;;;18.40;1.00;;;;;;4838770;29;20053;-45
2023/05/17 03:42:02;;;;;;;2.50;0.93;;;18.40;1.00;;;;;;4825830;29;20046;-43
2023/05/17 03:44:30;;;;;;;5.13;1.23;;;18.40;1.00;;;;;;4839923;29;20053;-43
2023/05/17 03:46:57;;;;;;;5.97;1.33;;;18.40;1.00;;;;;;4837103;29;20046;-43
2023/05/17 03:49:25;;;;;;;3.30;1.58;;;18.40;1.00;;;;;;4831545;29;20042;-44
2023/05/17 03:51:52;;;;;;;5.22;1.50;;;18.40;1.00;;;;;;4837356;29;20089;-43
2023/05/17 03:54:19;;;;;;;2.67;0.75;;;18.40;1.00;;;;;;4834523;29;20050;-43
2023/05/17 03:56:47;;;;;;;5.18;1.17;;;18.40;1.00;;;;;;4834214;29;20054;-44
2023/05/17 03:59:16;;;;;;;3.95;1.10;;;18.40;1.00;;;;;;4821297;29;20046;-45
2023/05/17 04:01:44;;;;;;;4.60;1.00;;;18.40;1.00;;;;;;4834344;29;20057;-44
2023/05/17 04:04:12;;;;;;;2.83;0.88;;;18.40;1.00;;;;;;4834425;29;20105;-43
2023/05/17 04:06:40;;;;;;;2.92;1.23;;;18.40;1.00;;;;;;4834240;29;20077;-43
2023/05/17 04:09:09;;;;;;;3.65;1.17;;;18.40;1.00;;;;;;4827517;29;20039;-44
2023/05/17 04:11:39;;;;;;;5.45;1.67;;;18.40;1.00;;;;;;4830853;29;20038;-43
2023/05/17 04:14:06;;;;;;;6.03;1.05;;;18.30;1.00;;;;;;4834716;29;20069;-43
2023/05/17 04:16:33;;;;;;;1.95;0.80;;;18.30;1.00;;;;;;4834470;29;20103;-43
2023/05/17 04:19:00;;;;;;;3.60;1.08;;;18.40;1.00;;;;;;4823355;29;20082;-43
2023/05/17 04:21:28;;;;;;;3.88;1.27;;;18.30;1.00;;;;;;4826855;29;20077;-44
2023/05/17 04:23:55;;;;;;;7.03;1.25;;;18.30;1.00;;;;;;4840472;29;20054;-45
2023/05/17 04:26:22;;;;;;;6.38;1.38;;;18.30;1.00;;;;;;4838607;29;20045;-47
2023/05/17 04:28:49;;;;;;;5.97;1.10;;;18.30;1.00;;;;;;4827266;29;20078;-44
2023/05/17 04:31:17;;;;;;;4.05;0.73;;;18.30;1.00;;;;;;4819460;29;20129;-43
2023/05/17 04:33:44;;;;;;;2.95;1.02;;;18.30;1.00;;;;;;4834994;29;20052;-43
2023/05/17 04:36:11;;;;;;;4.30;1.23;;;18.30;1.00;;;;;;4830434;29;20054;-44
2023/05/17 04:38:40;;;;;;;4.65;0.50;;;18.30;1.00;;;;;;4830876;29;20085;-43
2023/05/17 04:41:10;;;;;;;5.57;0.95;;;18.30;1.00;;;;;;4829687;29;20055;-43
2023/05/17 04:43:38;;;;;;;4.30;0.90;;;18.30;1.00;;;;;;4837194;29;20105;-44
2023/05/17 04:46:10;;;;;;;3.70;1.08;;;18.30;1.00;;;;;;4837237;29;20050;-44
2023/05/17 04:48:37;;;;;;;5.18;0.75;;;18.30;1.00;;;;;;4829446;29;20053;-43
2023/05/17 04:51:05;;;;;;;5.40;0.75;;;18.30;1.00;;;;;;4829242;29;20046;-43
2023/05/17 04:53:32;;;;;;;4.10;0.85;;;18.30;1.00;;;;;;4830549;29;20050;-43
2023/05/17 04:56:05;;;;;;;3.20;0.85;;;18.30;1.00;;;;;;4837210;29;20117;-45
2023/05/17 04:58:32;;;;;;;3.05;0.68;;;18.30;1.00;;;;;;4842402;29;20117;-43
2023/05/17 05:01:01;;;;;;;2.33;1.20;;;18.30;1.00;;;;;;4832403;29;20050;-43
2023/05/17 05:03:28;;;;;;;4.70;0.85;;;18.20;1.00;;;;;;4843074;29;20053;-43
2023/05/17 05:05:55;;;;;;;3.95;0.75;;;18.30;1.00;;;;;;4837292;29;20050;-44
2023/05/17 05:08:22;;;;;;;2.30;0.50;;;18.30;1.00;;;;;;4829013;29;20050;-44
2023/05/17 05:10:50;;;;;;;3.35;0.70;;;18.30;1.00;;;;;;4832880;29;20075;-44
2023/05/17 05:13:21;;;;;;;5.10;1.20;;;18.30;1.00;;;;;;4829161;29;20523;-43
2023/05/17 05:15:48;;;;;;;5.50;1.13;;;18.30;1.00;;;;;;4829939;29;20055;-43
2023/05/17 05:18:14;;;;;;;6.43;1.13;;;18.30;1.00;;;;;;4828991;29;20073;-44
2023/05/17 05:20:42;;;;;;;2.30;1.33;;;18.30;1.00;;;;;;4836858;29;20058;-43
2023/05/17 05:23:10;;;;;;;2.08;0.43;;;18.30;1.00;;;;;;4835908;29;20042;-43
2023/05/17 05:25:37;;;;;;;1.65;0.70;;;18.30;1.00;;;;;;4834121;29;20073;-43
2023/05/17 05:28:05;;;;;;;1.83;0.90;;;18.30;1.00;;;;;;4829995;29;20046;-43
2023/05/17 05:30:35;;;;;;;4.47;0.80;;;18.30;1.00;;;;;;4834044;29;20125;-44
2023/05/17 05:33:02;;;;;;;2.97;0.77;;;18.30;1.00;;;;;;4831378;29;20058;-43
2023/05/17 05:35:29;;;;;;;2.38;0.70;;;18.30;1.00;;;;;;4830657;29;20129;-43
2023/05/17 05:37:58;;;;;;;3.13;1.00;;;18.20;1.00;;;;;;4828478;29;20523;-44
2023/05/17 05:40:25;;;;;;;2.38;0.70;;;18.30;1.00;;;;;;4828017;29;20465;-45
2023/05/17 05:42:52;;;;;;;5.78;1.20;;;18.30;1.00;;;;;;4826401;29;20072;-44
2023/05/17 05:45:20;;;;;;;3.53;0.80;;;18.30;1.00;;;;;;4827212;29;20403;-43
2023/05/17 05:47:48;;;;;;;4.40;0.85;;;18.30;1.00;;;;;;4834309;29;20080;-43
2023/05/17 05:50:15;;;;;;;2.10;1.02;;;18.30;1.00;;;;;;4829479;29;20650;-43
2023/05/17 05:52:45;;;;;;;5.25;0.88;;;18.30;1.00;;;;;;4828181;29;20503;-43
2023/05/17 05:55:12;;;;;;;8.60;1.27;;;18.30;1.00;;;;;;4842703;29;20054;-44
2023/05/17 05:57:39;;;;;;;1.85;0.57;;;18.30;1.00;;;;;;4838700;29;20038;-43
2023/05/17 06:00:08;;;;;;;4.60;1.15;;;18.30;1.00;;;;;;4836954;29;20060;-44
2023/05/17 06:02:41;;;;;;;3.15;0.63;;;18.30;1.00;;;;;;4824850;29;20107;-44
2023/05/17 06:05:08;;;;;;;4.85;1.30;;;18.30;1.00;;;;;;4832478;29;20046;-43
2023/05/17 06:07:35;;;;;;;2.80;0.68;;;18.30;1.00;;;;;;4825609;29;20051;-43
2023/05/17 06:10:02;;;;;;;4.13;0.90;;;18.30;1.00;;;;;;4834816;29;20069;-44
2023/05/17 06:12:28;;;;;;;2.75;0.60;;;18.30;1.00;;;;;;4828467;29;20380;-44
2023/05/17 06:14:55;;;;;;;3.80;0.88;;;18.30;1.00;;;;;;4843301;29;20050;-43
2023/05/17 06:17:23;;;;;;;1.90;0.57;;;18.30;1.00;;;;;;4837412;29;20507;-43
2023/05/17 06:19:51;;;;;;;2.88;0.60;;;18.30;1.00;;;;;;4829737;29;20078;-43
2023/05/17 06:22:18;;;;;;;3.67;0.70;;;18.30;1.00;;;;;;4829822;29;20054;-43
2023/05/17 06:24:45;;;;;;;2.45;0.75;;;18.30;1.00;;;;;;4833964;29;20417;-43
2023/05/17 06:27:11;;;;;;;4.35;1.20;;;18.30;1.00;;;;;;4840111;29;20089;-43
2023/05/17 06:29:38;;;;;;;3.95;0.52;;;18.30;1.00;;;;;;4842679;29;20534;-43
2023/05/17 06:32:05;;;;;;;3.90;1.10;;;18.30;1.00;;;;;;4829083;29;20129;-43
2023/05/17 06:34:32;;;;;;;4.32;1.75;;;18.30;1.00;;;;;;4835699;29;20047;-43
2023/05/17 06:36:59;;;;;;;1.75;0.60;;;18.40;1.00;;;;;;4829117;29;20105;-43
2023/05/17 06:39:26;;;;;;;3.75;0.70;;;18.40;1.00;;;;;;4832775;29;20060;-43
2023/05/17 06:41:53;;;;;;;4.57;0.73;;;18.30;1.00;;;;;;4847767;29;20141;-43
2023/05/17 06:44:19;;;;;;;2.67;0.68;;;18.30;1.00;;;;;;4844688;29;20043;-43
2023/05/17 06:46:46;;;;;;;6.70;1.13;;;18.30;1.00;;;;;;4835314;29;20073;-43
2023/05/17 06:49:13;;;;;;;2.15;0.63;;;18.30;1.00;;;;;;4829704;29;20481;-43
2023/05/17 06:51:40;;;;;;;2.60;0.80;;;18.40;1.00;;;;;;4828779;29;20103;-43
2023/05/17 06:54:07;;;;;;;1.75;0.63;;;18.40;1.00;;;;;;4835958;29;20050;-45
2023/05/17 06:56:33;;;;;;;2.90;0.65;;;18.40;1.00;;;;;;4832445;29;20132;-43
2023/05/17 06:59:01;;;;;;;5.05;0.57;;;18.30;1.00;;;;;;4835979;29;20150;-44
2023/05/17 07:01:27;;;;;;;3.38;0.60;;;18.40;1.00;;;;;;4831462;29;20216;-46
2023/05/17 07:03:56;;;;;;;2.78;0.77;;;18.40;1.00;;;;;;4831015;29;20050;-44
2023/05/17 07:06:23;;;;;;;3.88;0.73;;;18.30;1.00;;;;;;4823466;29;20070;-43
2023/05/17 07:08:49;;;;;;;3.30;0.73;;;18.30;1.00;;;;;;4829695;29;20129;-43
2023/05/17 07:11:16;;;;;;;2.40;0.52;;;18.40;1.00;;;;;;4830806;29;20080;-44
2023/05/17 07:13:43;;;;;;;2.28;0.73;;;18.40;1.00;;;;;;4828726;29;20046;-44
2023/05/17 07:16:12;;;;;;;3.22;0.55;;;18.40;1.00;;;;;;4830415;29;20507;-44
2023/05/17 07:18:39;;;;;;;1.55;0.70;;;18.40;1.00;;;;;;4835614;29;20125;-43
2023/05/17 07:21:06;;;;;;;3.45;1.15;;;18.40;1.00;;;;;;4833172;29;20102;-44
2023/05/17 07:23:33;;;;;;;1.88;0.88;;;18.40;1.00;;;;;;4827156;29;20045;-44
2023/05/17 07:26:00;;;;;;;4.13;0.60;;;18.40;1.00;;;;;;4825231;29;20042;-43
2023/05/17 07:28:27;;;;;;;4.53;0.82;;;18.40;1.00;;;;;;4815674;29;20117;-43
2023/05/17 07:30:54;;;;;;;4.25;0.77;;;18.40;1.00;;;;;;4829759;29;20124;-43
2023/05/17 07:33:21;;;;;;;1.90;0.60;;;18.40;1.00;;;;;;4833444;29;20124;-43
2023/05/17 07:35:48;;;;;;;1.85;0.75;;;18.40;1.00;;;;;;4833904;29;20050;-43
2023/05/17 07:38:14;;;;;;;1.98;0.70;;;18.40;1.00;;;;;;4824079;29;20110;-43
2023/05/17 07:40:41;;;;;;;2.13;0.45;;;18.40;1.00;;;;;;4830654;29;20088;-43
2023/05/17 07:43:08;;;;;;;3.03;0.95;;;18.40;1.00;;;;;;4830984;29;20055;-43
2023/05/17 07:45:35;;;;;;;2.53;0.60;;;18.40;1.00;;;;;;4833411;29;20562;-43
2023/05/17 07:48:02;;;;;;;5.75;0.68;;;18.50;1.00;;;;;;4825724;29;20069;-44
2023/05/17 07:50:29;;;;;;;2.42;0.52;;;18.50;1.00;;;;;;4833787;29;20056;-44
2023/05/17 07:52:56;;;;;;;3.40;1.23;;;18.50;1.00;;;;;;4833410;29;20053;-43
2023/05/17 07:55:23;;;;;;;2.33;1.33;;;18.50;1.00;;;;;;4823236;29;20411;-44
2023/05/17 07:57:51;;;;;;;4.70;0.70;;;18.40;1.00;;;;;;4822551;29;20133;-43
2023/05/17 08:00:18;;;;;;;3.28;0.82;;;18.40;1.00;;;;;;4822623;29;20059;-43
2023/05/17 08:02:45;;;;;;;5.03;0.40;;;18.50;1.00;;;;;;4822727;29;20056;-44
2023/05/17 08:05:12;;;;;;;2.00;0.70;;;18.50;1.00;;;;;;4838736;29;20057;-43
2023/05/17 08:07:39;;;;;;;3.38;0.50;;;18.50;1.00;;;;;;4830935;29;20440;-42
2023/05/17 08:10:07;;;;;;;2.42;0.77;;;18.50;1.00;;;;;;4836241;29;20043;-42
2023/05/17 08:12:34;;;;;;;2.40;0.93;;;18.50;1.00;;;;;;4840777;29;20077;-43
2023/05/17 08:15:02;;;;;;;1.48;0.30;;;18.50;1.00;;;;;;4828669;29;20079;-42
2023/05/17 08:17:29;;;;;;;4.18;0.88;;;18.50;1.00;;;;;;4820895;29;20061;-43
2023/05/17 08:19:56;;;;;;;3.25;0.85;;;18.60;1.00;;;;;;4828644;29;20046;-45
2023/05/17 08:22:22;;;;;;;2.25;0.85;;;18.60;1.00;;;;;;4828273;29;20095;-43
2023/05/17 08:24:50;;;;;;;3.05;0.60;;;18.50;1.00;;;;;;4828222;29;20046;-43
2023/05/17 08:27:17;;;;;;;1.73;0.57;;;18.60;1.00;;;;;;4835657;29;20520;-43
2023/05/17 08:29:43;;;;;;;2.92;0.65;;;18.60;1.00;;;;;;4828582;29;20050;-43
2023/05/17 08:32:10;;;;;;;3.08;0.43;;;18.60;1.00;;;;;;4836661;29;20046;-43
2023/05/17 08:34:37;;;;;;;1.85;0.60;;;18.60;1.00;;;;;;4835342;29;20057;-44
2023/05/17 08:37:04;;;;;;;2.55;0.70;;;18.60;1.00;;;;;;4835688;29;20042;-43
2023/05/17 08:39:31;;;;;;;5.15;0.95;;;18.70;1.00;;;;;;4835970;29;20521;-43
2023/05/17 08:42:00;;;;;;;3.88;0.93;;;18.70;1.00;;;;;;4828559;29;20050;-44
2023/05/17 08:44:27;;;;;;;1.52;0.50;;;18.70;1.00;;;;;;4828067;29;20502;-43
2023/05/17 08:46:57;;;;;;;3.13;0.43;;;18.70;1.00;;;;;;4828196;29;20042;-42
2023/05/17 08:49:27;;;;;;;3.95;0.70;;;18.70;1.00;;;;;;4838212;29;20066;-42
2023/05/17 08:51:58;;;;;;;3.22;0.65;;;18.70;1.00;;;;;;4832893;29;20046;-43
2023/05/17 08:54:25;;;;;;;3.33;0.75;;;18.70;1.00;;;;;;4828261;29;20133;-42
2023/05/17 08:56:58;;;;;;;2.47;0.80;;;18.80;1.00;;;;;;4828071;29;20050;-44
2023/05/17 08:59:26;;;;;;;;;;;18.80;1.00;;;;;;4828584;29;20050;-47
2023/05/17 09:01:53;;;;;;;3.65;0.60;;;18.80;1.00;;;;;;4828368;29;20392;-43
2023/05/17 09:04:21;;;;;;;6.75;0.90;;;18.70;1.00;;;;;;4829464;29;20533;-43
2023/05/17 09:06:49;;;;;;;2.92;0.40;;;18.80;1.00;;;;;;4840980;29;20358;-43
2023/05/17 09:09:17;;;;;;;2.70;0.77;;;18.80;1.00;;;;;;4835578;29;20522;-43
2023/05/17 09:11:44;;;;;;;3.42;0.73;;;18.80;1.00;;;;;;4838014;29;20106;-44
2023/05/17 09:14:11;;;;;;;2.50;1.10;;;18.80;1.00;;;;;;4838038;29;20050;-44
2023/05/17 09:16:38;;;;;;;2.80;0.70;;;18.80;1.00;;;;;;4827894;29;20054;-44
2023/05/17 09:19:07;;;;;;;4.03;0.73;;;18.80;1.00;;;;;;4826718;29;20168;-45
2023/05/17 09:21:36;;;;;;;5.47;1.35;;;18.90;1.00;;;;;;4828526;29;20460;-44
2023/05/17 09:24:02;;;;;;;3.15;0.60;;;18.90;1.00;;;;;;4828600;29;20047;-44
2023/05/17 09:26:41;;;;;;;2.10;0.47;;;18.90;1.00;;;;;;4817634;29;20053;-44
2023/05/17 09:29:13;;;;;;;3.97;0.77;;;18.90;1.00;;;;;;4825025;29;20411;-44
2023/05/17 09:31:41;;;;;;;3.25;0.65;;;18.90;1.00;;;;;;4831575;29;20410;-45
2023/05/17 09:34:08;;;;;;;6.22;0.82;;;19.00;1.00;;;;;;4824702;29;20118;-44
2023/05/17 09:36:37;;;;;;;2.03;0.68;;;18.90;1.00;;;;;;4832213;29;20042;-43
2023/05/17 09:39:09;;;;;;;1.98;0.98;;;19.00;1.00;;;;;;4824852;29;20125;-45
2023/05/17 09:41:45;;;;;;;3.03;0.93;;;19.00;1.00;;;;;;4825021;29;20050;-44
2023/05/17 09:44:14;;;;;;;3.25;0.85;;;19.00;1.00;;;;;;4832579;29;20494;-43
2023/05/17 09:46:46;;;;;;;1.52;0.35;;;19.00;1.00;;;;;;4831108;29;20038;-44
2023/05/17 09:49:15;;;;;;;4.30;0.90;;;19.10;1.00;;;;;;4832119;29;20498;-43
2023/05/17 09:51:47;;;;;;;6.07;0.82;;;19.10;1.00;;;;;;4824847;29;20034;-43
2023/05/17 09:54:13;;;;;;;4.68;0.65;;;19.10;1.00;;;;;;4831971;29;20067;-43
2023/05/17 09:56:40;;;;;;;2.47;0.50;;;19.10;1.00;;;;;;4824881;29;20042;-44
2023/05/17 09:59:13;;;;;;;6.57;1.27;;;19.10;1.00;;;;;;4839614;29;20505;-44
2023/05/17 10:01:42;;;;;;;1.52;0.73;;;19.10;1.00;;;;;;4831673;29;20402;-45
2023/05/17 10:04:10;;;;;;;5.35;1.23;;;19.20;1.00;;;;;;4831616;29;20042;-46
2023/05/17 10:06:43;;;;;;;3.08;0.75;;;19.20;1.00;;;;;;4817816;29;20075;-48
2023/05/17 10:09:17;;;;;;;2.22;0.38;;;19.20;1.00;;;;;;4824352;29;20494;-45
2023/05/17 10:11:45;;;;;;;3.40;0.70;;;19.20;1.00;;;;;;4830013;29;20042;-46
2023/05/17 10:14:24;;;;;;;3.13;0.68;;;19.20;1.00;;;;;;4831837;29;20079;-43
2023/05/17 10:16:53;;;;;;;2.53;0.70;;;19.20;1.00;;;;;;4829718;29;20088;-45
2023/05/17 10:19:20;;;;;;;3.72;1.08;;;19.20;1.00;;;;;;4831651;29;20113;-43
2023/05/17 10:21:49;;;;;;;2.10;0.50;;;19.20;1.00;;;;;;4824301;29;20067;-44
2023/05/17 10:24:18;;;;;;;4.55;1.35;;;19.20;1.00;;;;;;4823937;29;20043;-45
2023/05/17 10:26:46;;;;;;;3.15;0.88;;;19.20;1.00;;;;;;4823988;29;20035;-44
2023/05/17 10:29:14;;;;;;;6.57;1.30;;;19.20;1.00;;;;;;4831548;29;20136;-44
2023/05/17 10:31:42;;;;;;;1.95;0.68;;;19.20;1.00;;;;;;4827527;29;20076;-44
2023/05/17 10:34:11;;;;;;;2.97;0.82;;;19.20;1.00;;;;;;4827172;29;20042;-43
2023/05/17 10:36:40;;;;;;;5.03;0.75;;;19.20;1.00;;;;;;4827161;29;20080;-44
2023/05/17 10:39:07;;;;;;;2.38;1.17;;;19.20;1.00;;;;;;4834488;29;20061;-45
2023/05/17 10:41:35;;;;;;;7.18;0.98;;;19.30;1.00;;;;;;4824362;29;20050;-43
2023/05/17 10:44:04;;;;;;;3.80;1.05;;;19.20;1.00;;;;;;4831364;29;20085;-44
2023/05/17 10:46:31;;;;;;;1.83;0.75;;;19.20;1.00;;;;;;4823502;29;20403;-44
2023/05/17 10:48:59;;;;;;;3.15;0.55;;;19.20;1.00;;;;;;4823742;29;20062;-45
2023/05/17 10:51:31;;;;;;;3.45;0.68;;;19.20;1.00;;;;;;4823824;29;20039;-44
2023/05/17 10:54:11;;;;;;;4.75;0.90;;;19.20;1.00;;;;;;4823627;29;20048;-44
2023/05/17 10:56:47;;;;;;;4.40;0.73;;;19.20;1.00;;;;;;4822537;29;20074;-46
2023/05/17 10:59:16;;;;;;;6.15;2.13;;;19.30;1.00;;;;;;4823595;29;20043;-43
2023/05/17 11:01:53;;;;;;;4.45;0.70;;;19.20;1.00;;;;;;4823661;29;20062;-44
2023/05/17 11:04:40;;;;;;;5.07;1.67;;;19.20;1.00;;;;;;4824160;29;20224;-47
2023/05/17 11:07:17;;;;;;;9.48;1.60;;;19.20;1.00;;;;;;4827295;29;20038;-44
2023/05/17 11:09:48;;;;;;;5.45;1.00;;;19.20;1.00;;;;;;4816864;29;20491;-46
2023/05/17 11:12:16;;;;;;;6.93;1.58;;;19.20;1.00;;;;;;4829335;29;20326;-46
2023/05/17 11:14:47;;;;;;;9.82;2.03;;;19.20;1.00;;;;;;4823453;29;20050;-43
2023/05/17 11:17:23;;;;;;;6.13;1.40;;;19.20;1.00;;;;;;4830753;29;20477;-43
2023/05/17 11:20:01;;;;;;;14.52;2.50;;;19.20;1.00;;;;;;4823394;29;20042;-45
2023/05/17 11:22:38;;;;;;;8.50;1.48;;;19.10;1.00;;;;;;4832629;29;20045;-44
2023/05/17 11:25:08;;;;;;;14.25;2.13;;;19.20;1.00;;;;;;4827618;29;20062;-43
2023/05/17 11:27:46;;;;;;;6.63;1.80;;;19.10;1.00;;;;;;4825739;29;20042;-44
2023/05/17 11:30:17;;;;;;;8.55;1.27;;;19.10;1.00;;;;;;4834323;29;20130;-44
2023/05/17 11:32:52;;;;;;;9.43;1.52;;;19.10;1.00;;;;;;4821130;29;20491;-45
2023/05/17 11:35:25;;;;;;;14.13;1.85;;;19.10;1.00;;;;;;4816713;29;20054;-44
2023/05/17 11:37:53;;;;;;;10.48;2.13;;;19.10;1.00;;;;;;4817120;29;20470;-48
2023/05/17 11:40:27;;;;;;;7.55;1.85;;;19.10;1.00;;;;;;4815143;29;20482;-45
2023/05/17 11:43:17;;;;;;;5.47;1.75;;;19.10;1.00;;;;;;4808707;29;20046;-43
2023/05/17 11:45:45;;;;;;;10.95;1.27;;;19.00;1.00;;;;;;4813468;29;20042;-43
2023/05/17 11:48:13;;;;;;;6.97;1.27;;;19.00;1.00;;;;;;4822093;29;20053;-45
2023/05/17 11:50:41;;;;;;;11.32;1.77;;;19.00;1.00;;;;;;4814889;29;20407;-47
2023/05/17 11:53:08;;;;;;;6.85;1.30;;;19.00;1.00;;;;;;4819309;29;20073;-44
2023/05/17 11:55:40;;;;;;;12.73;2.17;;;19.00;1.00;;;;;;4826736;29;20132;-48
2023/05/17 11:58:09;;;;;;;8.95;1.73;;;19.00;1.00;;;;;;4816142;29;20050;-48
2023/05/17 12:00:40;;;;;;;10.98;1.55;;;18.90;1.00;;;;;;4827082;29;20556;-47
2023/05/17 12:03:18;;;;;;;11.23;1.10;;;19.00;1.00;;;;;;4820866;29;20395;-44
2023/05/17 12:05:47;;;;;;;10.07;2.00;;;18.90;1.00;;;;;;4813505;29;20045;-44
2023/05/17 12:08:18;;;;;;;8.57;1.35;;;18.90;1.00;;;;;;4818146;29;20047;-43
2023/05/17 12:10:50;;;;;;;5.43;1.70;;;18.90;1.00;;;;;;4814590;29;20487;-43
2023/05/17 12:13:19;;;;;;;5.22;1.20;;;18.90;1.00;;;;;;4819461;29;20452;-45
2023/05/17 12:16:13;;;;;;;7.43;1.30;;;18.90;1.00;;;;;;4818438;29;20043;-45
2023/05/17 12:18:46;;;;;;;7.55;1.90;;;18.90;1.00;;;;;;4814980;29;20468;-43
2023/05/17 12:21:14;;;;;;;8.23;1.58;;;18.90;1.00;;;;;;4817682;29;20046;-45
2023/05/17 12:23:43;;;;;;;6.78;2.25;;;18.90;1.00;;;;;;4821620;29;20060;-47
2023/05/17 12:26:20;;;;;;;7.32;2.40;;;18.80;1.00;;;;;;4809438;29;20079;-43
2023/05/17 12:28:58;;;;;;;11.40;1.48;;;18.90;1.00;;;;;;4817689;29;20077;-45
2023/05/17 12:31:31;;;;;;;10.95;2.22;;;18.80;1.00;;;;;;4822390;29;20045;-47
2023/05/17 12:34:00;;;;;;;7.60;1.02;;;18.80;1.00;;;;;;4819695;29;20046;-47
2023/05/17 12:36:29;;;;;;;4.75;1.17;;;18.80;1.00;;;;;;4820166;29;20046;-47
2023/05/17 12:38:56;;;;;;;8.90;1.48;;;18.80;1.00;;;;;;4822499;29;20061;-45
2023/05/17 12:41:25;;;;;;;9.18;1.63;;;18.80;1.00;;;;;;4827341;29;20076;-43
2023/05/17 12:43:52;;;;;;;5.97;1.48;;;18.70;1.00;;;;;;4816935;29;20414;-45
2023/05/17 12:46:39;;;;;;;9.13;1.92;;;18.80;1.00;;;;;;4817520;29;20056;-44
2023/05/17 12:49:08;;;;;;;7.45;1.55;;;18.70;1.00;;;;;;4823074;29;20114;-46
2023/05/17 12:51:45;;;;;;;6.65;1.50;;;18.70;1.00;;;;;;4834273;29;20063;-43
2023/05/17 12:54:23;;;;;;;5.57;1.33;;;18.70;1.00;;;;;;4821701;29;20038;-43
2023/05/17 12:56:50;;;;;;;5.32;1.75;;;18.70;1.00;;;;;;4825245;29;20039;-43
2023/05/17 12:59:19;;;;;;;4.72;1.20;;;18.70;1.00;;;;;;4826029;29;20053;-45
2023/05/17 13:01:56;;;;;;;5.20;1.40;;;18.70;1.00;;;;;;4825453;29;20038;-44
2023/05/17 13:04:31;;;;;;;5.85;1.67;;;18.70;1.00;;;;;;4832813;29;20107;-44
2023/05/17 13:07:00;;;;;;;4.93;1.48;;;18.70;1.00;;;;;;4825411;29;20087;-45
2023/05/17 13:09:31;;;;;;;7.95;1.35;;;18.70;1.00;;;;;;4825362;29;20054;-45